sensor_id;sensor_type;location;lat;lon;timestamp;pressure;altitude;pressure_sealevel;temperature;humidity
53715;BME280;39608;55.630;37.864;2023-04-06T00:03:43;100146.66;;;6.56;59.68
53715;BME280;39608;55.630;37.864;2023-04-06T00:08:45;100143.88;;;6.51;59.67
53715;BME280;39608;55.630;37.864;2023-04-06T00:13:47;100152.16;;;6.44;59.82
53715;BME280;39608;55.630;37.864;2023-04-06T00:18:50;100154.03;;;6.44;59.58
53715;BME280;39608;55.630;37.864;2023-04-06T00:23:52;100151.81;;;6.41;60.09
53715;BME280;39608;55.630;37.864;2023-04-06T00:28:55;100152.66;;;6.41;59.32
53715;BME280;39608;55.630;37.864;2023-04-06T00:33:58;100150.78;;;6.42;59.58
53715;BME280;39608;55.630;37.864;2023-04-06T00:39:00;100138.81;;;6.32;59.54
53715;BME280;39608;55.630;37.864;2023-04-06T00:44:02;100139.00;;;6.26;59.75
53715;BME280;39608;55.630;37.864;2023-04-06T00:49:06;100146.25;;;6.25;60.15
53715;BME280;39608;55.630;37.864;2023-04-06T00:54:08;100151.34;;;6.22;60.38
53715;BME280;39608;55.630;37.864;2023-04-06T00:59:10;100146.22;;;6.20;59.85
53715;BME280;39608;55.630;37.864;2023-04-06T01:04:14;100141.88;;;6.19;59.93
53715;BME280;39608;55.630;37.864;2023-04-06T01:09:16;100128.84;;;6.11;60.20
53715;BME280;39608;55.630;37.864;2023-04-06T01:14:18;100137.44;;;6.08;60.33
53715;BME280;39608;55.630;37.864;2023-04-06T01:19:22;100149.22;;;6.02;61.17
53715;BME280;39608;55.630;37.864;2023-04-06T01:24:26;100141.94;;;6.02;60.40
53715;BME280;39608;55.630;37.864;2023-04-06T01:29:28;100139.63;;;5.94;60.74
53715;BME280;39608;55.630;37.864;2023-04-06T01:34:30;100140.63;;;5.88;61.05
53715;BME280;39608;55.630;37.864;2023-04-06T01:39:33;100117.97;;;5.83;61.00
53715;BME280;39608;55.630;37.864;2023-04-06T01:44:35;100136.47;;;5.80;60.91
53715;BME280;39608;55.630;37.864;2023-04-06T01:49:37;100128.66;;;5.78;60.68
53715;BME280;39608;55.630;37.864;2023-04-06T01:54:41;100128.06;;;5.76;60.95
53715;BME280;39608;55.630;37.864;2023-04-06T01:59:43;100135.25;;;5.71;61.26
53715;BME280;39608;55.630;37.864;2023-04-06T02:04:45;100137.41;;;5.69;60.93
53715;BME280;39608;55.630;37.864;2023-04-06T02:09:50;100148.16;;;5.69;61.39
53715;BME280;39608;55.630;37.864;2023-04-06T02:14:52;100144.59;;;5.63;61.25
53715;BME280;39608;55.630;37.864;2023-04-06T02:19:54;100148.31;;;5.62;61.19
53715;BME280;39608;55.630;37.864;2023-04-06T02:24:58;100137.47;;;5.57;61.16
53715;BME280;39608;55.630;37.864;2023-04-06T02:30:00;100153.06;;;5.55;60.58
53715;BME280;39608;55.630;37.864;2023-04-06T02:35:04;100158.69;;;5.53;61.19
53715;BME280;39608;55.630;37.864;2023-04-06T02:40:11;100154.38;;;5.52;61.20
53715;BME280;39608;55.630;37.864;2023-04-06T02:45:13;100152.50;;;5.53;60.93
53715;BME280;39608;55.630;37.864;2023-04-06T02:50:16;100164.81;;;5.48;60.95
53715;BME280;39608;55.630;37.864;2023-04-06T02:55:19;100157.72;;;5.42;61.39
53715;BME280;39608;55.630;37.864;2023-04-06T03:00:21;100168.16;;;5.39;61.46
53715;BME280;39608;55.630;37.864;2023-04-06T03:05:23;100174.84;;;5.36;61.80
53715;BME280;39608;55.630;37.864;2023-04-06T03:10:27;100182.06;;;5.36;61.79
53715;BME280;39608;55.630;37.864;2023-04-06T03:15:29;100177.78;;;5.35;61.88
53715;BME280;39608;55.630;37.864;2023-04-06T03:20:31;100186.88;;;5.34;61.70
53715;BME280;39608;55.630;37.864;2023-04-06T03:25:34;100192.81;;;5.36;61.49
53715;BME280;39608;55.630;37.864;2023-04-06T03:30:37;100186.66;;;5.35;61.75
53715;BME280;39608;55.630;37.864;2023-04-06T03:35:39;100187.94;;;5.32;61.52
53715;BME280;39608;55.630;37.864;2023-04-06T03:40:43;100200.91;;;5.36;61.25
53715;BME280;39608;55.630;37.864;2023-04-06T03:45:45;100195.75;;;5.34;61.06
53715;BME280;39608;55.630;37.864;2023-04-06T03:50:47;100206.63;;;5.39;61.60
53715;BME280;39608;55.630;37.864;2023-04-06T03:55:51;100213.00;;;5.50;60.74
53715;BME280;39608;55.630;37.864;2023-04-06T04:00:53;100218.94;;;5.52;60.68
53715;BME280;39608;55.630;37.864;2023-04-06T04:05:55;100203.13;;;5.39;60.25
53715;BME280;39608;55.630;37.864;2023-04-06T04:10:58;100227.59;;;5.54;60.97
53715;BME280;39608;55.630;37.864;2023-04-06T04:16:01;100226.75;;;5.54;60.60
53715;BME280;39608;55.630;37.864;2023-04-06T04:21:03;100235.41;;;5.56;60.71
53715;BME280;39608;55.630;37.864;2023-04-06T04:26:07;100229.28;;;5.60;60.91
53715;BME280;39608;55.630;37.864;2023-04-06T04:31:09;100224.72;;;5.61;60.02
53715;BME280;39608;55.630;37.864;2023-04-06T04:36:11;100239.41;;;5.70;60.03
53715;BME280;39608;55.630;37.864;2023-04-06T04:41:15;100236.56;;;5.77;60.19
53715;BME280;39608;55.630;37.864;2023-04-06T04:46:17;100226.84;;;5.76;60.46
53715;BME280;39608;55.630;37.864;2023-04-06T04:51:19;100239.34;;;5.82;59.81
53715;BME280;39608;55.630;37.864;2023-04-06T04:56:23;100234.03;;;5.87;60.23
53715;BME280;39608;55.630;37.864;2023-04-06T05:01:25;100229.88;;;5.96;60.20
53715;BME280;39608;55.630;37.864;2023-04-06T05:06:27;100235.50;;;6.73;59.30
53715;BME280;39608;55.630;37.864;2023-04-06T05:11:30;100241.91;;;7.44;57.96
53715;BME280;39608;55.630;37.864;2023-04-06T05:16:33;100236.19;;;8.05;57.25
53715;BME280;39608;55.630;37.864;2023-04-06T05:21:37;100244.72;;;8.82;55.67
53715;BME280;39608;55.630;37.864;2023-04-06T05:26:41;100235.88;;;9.13;53.62
53715;BME280;39608;55.630;37.864;2023-04-06T05:31:44;100248.66;;;9.28;54.11
53715;BME280;39608;55.630;37.864;2023-04-06T05:36:46;100231.88;;;9.56;53.23
53715;BME280;39608;55.630;37.864;2023-04-06T05:41:49;100244.06;;;9.95;52.92
53715;BME280;39608;55.630;37.864;2023-04-06T05:46:51;100247.00;;;10.19;52.02
53715;BME280;39608;55.630;37.864;2023-04-06T05:51:54;100238.91;;;10.09;51.98
53715;BME280;39608;55.630;37.864;2023-04-06T05:56:58;100233.16;;;10.36;51.60
53715;BME280;39608;55.630;37.864;2023-04-06T06:02:00;100249.38;;;10.62;51.26
53715;BME280;39608;55.630;37.864;2023-04-06T06:07:02;100263.81;;;11.07;50.49
53715;BME280;39608;55.630;37.864;2023-04-06T06:12:07;100253.91;;;11.32;49.00
53715;BME280;39608;55.630;37.864;2023-04-06T06:17:09;100237.56;;;10.98;49.08
53715;BME280;39608;55.630;37.864;2023-04-06T06:22:11;100248.50;;;11.27;48.90
53715;BME280;39608;55.630;37.864;2023-04-06T06:27:15;100242.38;;;11.85;48.66
53715;BME280;39608;55.630;37.864;2023-04-06T06:32:17;100236.59;;;11.97;48.10
53715;BME280;39608;55.630;37.864;2023-04-06T06:37:20;100240.44;;;11.91;47.68
53715;BME280;39608;55.630;37.864;2023-04-06T06:42:24;100242.13;;;11.47;47.79
53715;BME280;39608;55.630;37.864;2023-04-06T06:47:26;100236.63;;;10.57;48.42
53715;BME280;39608;55.630;37.864;2023-04-06T06:52:28;100240.53;;;9.94;49.30
53715;BME280;39608;55.630;37.864;2023-04-06T06:57:32;100247.88;;;9.63;49.99
53715;BME280;39608;55.630;37.864;2023-04-06T07:02:34;100236.22;;;9.47;50.29
53715;BME280;39608;55.630;37.864;2023-04-06T07:07:37;100241.34;;;9.44;50.24
53715;BME280;39608;55.630;37.864;2023-04-06T07:12:40;100235.41;;;9.57;50.15
53715;BME280;39608;55.630;37.864;2023-04-06T07:17:43;100243.00;;;9.60;49.71
53715;BME280;39608;55.630;37.864;2023-04-06T07:22:45;100239.19;;;9.66;50.10
53715;BME280;39608;55.630;37.864;2023-04-06T07:27:50;100236.75;;;9.85;49.75
53715;BME280;39608;55.630;37.864;2023-04-06T07:32:52;100242.16;;;10.06;49.54
53715;BME280;39608;55.630;37.864;2023-04-06T07:37:56;100249.47;;;10.16;49.31
53715;BME280;39608;55.630;37.864;2023-04-06T07:42:59;100240.50;;;10.25;49.13
53715;BME280;39608;55.630;37.864;2023-04-06T07:48:05;100242.66;;;10.39;48.47
53715;BME280;39608;55.630;37.864;2023-04-06T07:53:08;100250.47;;;10.66;48.19
53715;BME280;39608;55.630;37.864;2023-04-06T07:58:12;100242.53;;;11.70;47.55
53715;BME280;39608;55.630;37.864;2023-04-06T08:03:14;100248.84;;;13.15;44.96
53715;BME280;39608;55.630;37.864;2023-04-06T08:08:17;100245.88;;;14.02;43.30
53715;BME280;39608;55.630;37.864;2023-04-06T08:13:20;100251.09;;;14.45;41.98
53715;BME280;39608;55.630;37.864;2023-04-06T08:18:22;100242.69;;;14.55;41.30
53715;BME280;39608;55.630;37.864;2023-04-06T08:23:25;100245.84;;;14.91;40.73
53715;BME280;39608;55.630;37.864;2023-04-06T08:28:28;100254.47;;;15.20;40.35
53715;BME280;39608;55.630;37.864;2023-04-06T08:33:30;100237.50;;;15.69;39.06
53715;BME280;39608;55.630;37.864;2023-04-06T08:38:35;100250.78;;;16.07;38.43
53715;BME280;39608;55.630;37.864;2023-04-06T08:43:42;100246.13;;;16.39;38.19
53715;BME280;39608;55.630;37.864;2023-04-06T08:48:45;100248.56;;;16.09;38.04
53715;BME280;39608;55.630;37.864;2023-04-06T08:53:50;100244.81;;;16.36;37.91
53715;BME280;39608;55.630;37.864;2023-04-06T08:58:56;100236.81;;;16.49;37.05
53715;BME280;39608;55.630;37.864;2023-04-06T09:03:59;100225.78;;;16.80;36.47
53715;BME280;39608;55.630;37.864;2023-04-06T09:09:01;100233.13;;;17.11;35.57
53715;BME280;39608;55.630;37.864;2023-04-06T09:14:05;100235.69;;;17.25;36.18
53715;BME280;39608;55.630;37.864;2023-04-06T09:19:07;100224.75;;;17.60;34.82
53715;BME280;39608;55.630;37.864;2023-04-06T09:24:10;100222.38;;;18.06;34.28
53715;BME280;39608;55.630;37.864;2023-04-06T09:29:22;100219.19;;;18.04;35.28
53715;BME280;39608;55.630;37.864;2023-04-06T09:34:24;100217.72;;;17.89;33.65
53715;BME280;39608;55.630;37.864;2023-04-06T09:39:26;100219.50;;;17.93;34.14
53715;BME280;39608;55.630;37.864;2023-04-06T09:44:30;100210.56;;;18.14;33.67
53715;BME280;39608;55.630;37.864;2023-04-06T09:49:33;100210.75;;;18.18;33.64
53715;BME280;39608;55.630;37.864;2023-04-06T09:54:36;100215.00;;;18.66;32.71
53715;BME280;39608;55.630;37.864;2023-04-06T09:59:44;100198.47;;;19.05;31.52
53715;BME280;39608;55.630;37.864;2023-04-06T10:04:53;100199.41;;;19.09;32.41
53715;BME280;39608;55.630;37.864;2023-04-06T10:09:59;100197.72;;;19.17;31.28
53715;BME280;39608;55.630;37.864;2023-04-06T10:15:06;100203.53;;;19.57;30.92
53715;BME280;39608;55.630;37.864;2023-04-06T10:20:12;100203.88;;;19.68;30.56
53715;BME280;39608;55.630;37.864;2023-04-06T10:25:16;100202.53;;;19.41;30.28
53715;BME280;39608;55.630;37.864;2023-04-06T10:30:20;100201.13;;;19.13;30.28
53715;BME280;39608;55.630;37.864;2023-04-06T10:35:22;100196.97;;;19.28;29.82
53715;BME280;39608;55.630;37.864;2023-04-06T10:40:26;100203.75;;;19.86;29.43
53715;BME280;39608;55.630;37.864;2023-04-06T10:45:31;100198.31;;;19.77;28.98
53715;BME280;39608;55.630;37.864;2023-04-06T10:50:34;100191.63;;;20.24;28.54
53715;BME280;39608;55.630;37.864;2023-04-06T10:55:39;100194.28;;;20.70;28.32
53715;BME280;39608;55.630;37.864;2023-04-06T11:00:45;100195.44;;;20.68;27.73
53715;BME280;39608;55.630;37.864;2023-04-06T11:05:48;100187.97;;;20.32;27.24
53715;BME280;39608;55.630;37.864;2023-04-06T11:10:51;100196.09;;;20.16;27.46
53715;BME280;39608;55.630;37.864;2023-04-06T11:15:55;100195.66;;;20.76;27.33
53715;BME280;39608;55.630;37.864;2023-04-06T11:20:57;100199.78;;;20.57;26.94
53715;BME280;39608;55.630;37.864;2023-04-06T11:25:59;100194.72;;;20.22;26.92
53715;BME280;39608;55.630;37.864;2023-04-06T11:31:02;100186.47;;;20.10;26.95
53715;BME280;39608;55.630;37.864;2023-04-06T11:36:05;100196.34;;;20.11;26.70
53715;BME280;39608;55.630;37.864;2023-04-06T11:41:07;100183.72;;;20.22;26.91
53715;BME280;39608;55.630;37.864;2023-04-06T11:46:17;100186.34;;;20.56;27.04
53715;BME280;39608;55.630;37.864;2023-04-06T11:51:22;100177.50;;;20.62;26.72
53715;BME280;39608;55.630;37.864;2023-04-06T11:56:26;100170.59;;;20.93;26.30
53715;BME280;39608;55.630;37.864;2023-04-06T12:01:30;100172.50;;;21.05;26.08
53715;BME280;39608;55.630;37.864;2023-04-06T12:06:32;100167.41;;;20.54;26.33
53715;BME280;39608;55.630;37.864;2023-04-06T12:11:36;100162.69;;;20.42;26.61
53715;BME280;39608;55.630;37.864;2023-04-06T12:16:40;100165.09;;;20.81;26.07
53715;BME280;39608;55.630;37.864;2023-04-06T12:21:43;100166.47;;;20.75;25.91
53715;BME280;39608;55.630;37.864;2023-04-06T12:26:45;100166.72;;;20.82;26.18
53715;BME280;39608;55.630;37.864;2023-04-06T12:31:50;100171.16;;;20.99;25.29
53715;BME280;39608;55.630;37.864;2023-04-06T12:36:53;100160.28;;;20.78;25.36
53715;BME280;39608;55.630;37.864;2023-04-06T12:41:56;100156.81;;;20.93;25.57
53715;BME280;39608;55.630;37.864;2023-04-06T12:46:59;100169.09;;;20.96;26.01
53715;BME280;39608;55.630;37.864;2023-04-06T12:52:04;100161.84;;;20.91;26.19
53715;BME280;39608;55.630;37.864;2023-04-06T12:57:06;100155.91;;;20.77;26.54
53715;BME280;39608;55.630;37.864;2023-04-06T13:02:10;100157.25;;;20.95;26.24
53715;BME280;39608;55.630;37.864;2023-04-06T13:07:12;100161.63;;;21.25;25.86
53715;BME280;39608;55.630;37.864;2023-04-06T13:12:15;100156.50;;;21.11;26.03
53715;BME280;39608;55.630;37.864;2023-04-06T13:17:18;100151.84;;;21.27;26.29
53715;BME280;39608;55.630;37.864;2023-04-06T13:22:21;100158.69;;;21.05;26.18
53715;BME280;39608;55.630;37.864;2023-04-06T13:27:23;100158.47;;;21.10;26.09
53715;BME280;39608;55.630;37.864;2023-04-06T13:32:27;100151.69;;;21.64;25.67
53715;BME280;39608;55.630;37.864;2023-04-06T13:37:29;100150.50;;;21.21;25.61
53715;BME280;39608;55.630;37.864;2023-04-06T13:42:32;100147.19;;;20.62;26.26
53715;BME280;39608;55.630;37.864;2023-04-06T13:47:37;100144.66;;;20.57;26.19
53715;BME280;39608;55.630;37.864;2023-04-06T13:52:39;100152.81;;;20.66;25.75
53715;BME280;39608;55.630;37.864;2023-04-06T13:57:41;100145.81;;;21.09;25.70
53715;BME280;39608;55.630;37.864;2023-04-06T14:02:44;100154.47;;;21.80;25.03
53715;BME280;39608;55.630;37.864;2023-04-06T14:07:47;100164.53;;;21.88;24.34
53715;BME280;39608;55.630;37.864;2023-04-06T14:12:49;100155.44;;;21.72;24.33
53715;BME280;39608;55.630;37.864;2023-04-06T14:17:52;100151.78;;;21.68;24.39
53715;BME280;39608;55.630;37.864;2023-04-06T14:22:55;100154.28;;;20.88;24.06
53715;BME280;39608;55.630;37.864;2023-04-06T14:27:57;100156.28;;;20.13;24.80
53715;BME280;39608;55.630;37.864;2023-04-06T14:33:01;100152.47;;;20.55;24.52
53715;BME280;39608;55.630;37.864;2023-04-06T14:38:03;100150.16;;;20.82;23.99
53715;BME280;39608;55.630;37.864;2023-04-06T14:43:05;100153.31;;;20.31;24.25
53715;BME280;39608;55.630;37.864;2023-04-06T14:48:09;100145.13;;;19.97;24.75
53715;BME280;39608;55.630;37.864;2023-04-06T14:53:12;100146.91;;;19.69;24.73
53715;BME280;39608;55.630;37.864;2023-04-06T14:58:14;100143.06;;;18.73;25.16
53715;BME280;39608;55.630;37.864;2023-04-06T15:03:18;100150.56;;;18.34;25.82
53715;BME280;39608;55.630;37.864;2023-04-06T15:08:20;100153.41;;;18.16;25.77
53715;BME280;39608;55.630;37.864;2023-04-06T15:13:22;100158.84;;;17.95;25.82
53715;BME280;39608;55.630;37.864;2023-04-06T15:18:26;100161.25;;;17.79;26.10
53715;BME280;39608;55.630;37.864;2023-04-06T15:23:32;100164.06;;;17.61;26.15
53715;BME280;39608;55.630;37.864;2023-04-06T15:28:38;100162.19;;;17.27;26.25
53715;BME280;39608;55.630;37.864;2023-04-06T15:33:42;100164.84;;;16.66;27.07
53715;BME280;39608;55.630;37.864;2023-04-06T15:38:44;100171.56;;;15.70;27.94
53715;BME280;39608;55.630;37.864;2023-04-06T15:43:47;100181.69;;;15.02;28.75
53715;BME280;39608;55.630;37.864;2023-04-06T15:48:51;100173.47;;;14.65;29.21
53715;BME280;39608;55.630;37.864;2023-04-06T15:53:53;100188.22;;;14.36;29.50
53715;BME280;39608;55.630;37.864;2023-04-06T15:58:55;100191.63;;;14.14;29.65
53715;BME280;39608;55.630;37.864;2023-04-06T16:03:58;100189.81;;;13.96;29.83
53715;BME280;39608;55.630;37.864;2023-04-06T16:09:00;100202.09;;;13.79;30.07
53715;BME280;39608;55.630;37.864;2023-04-06T16:14:02;100203.97;;;13.65;30.27
53715;BME280;39608;55.630;37.864;2023-04-06T16:19:06;100203.63;;;13.52;30.43
53715;BME280;39608;55.630;37.864;2023-04-06T16:24:08;100228.97;;;13.34;30.34
53715;BME280;39608;55.630;37.864;2023-04-06T16:29:10;100223.22;;;13.16;30.62
53715;BME280;39608;55.630;37.864;2023-04-06T16:34:14;100235.59;;;13.09;30.78
53715;BME280;39608;55.630;37.864;2023-04-06T16:39:16;100230.09;;;12.90;30.64
53715;BME280;39608;55.630;37.864;2023-04-06T16:44:19;100237.63;;;12.79;30.63
53715;BME280;39608;55.630;37.864;2023-04-06T16:49:22;100237.13;;;12.72;30.70
53715;BME280;39608;55.630;37.864;2023-04-06T16:54:24;100255.00;;;12.59;30.88
53715;BME280;39608;55.630;37.864;2023-04-06T16:59:26;100256.50;;;12.46;30.94
53715;BME280;39608;55.630;37.864;2023-04-06T17:04:30;100262.53;;;12.43;30.96
53715;BME280;39608;55.630;37.864;2023-04-06T17:09:32;100270.00;;;12.27;30.92
53715;BME280;39608;55.630;37.864;2023-04-06T17:14:38;100263.00;;;12.21;30.69
53715;BME280;39608;55.630;37.864;2023-04-06T17:19:41;100279.06;;;12.17;31.25
53715;BME280;39608;55.630;37.864;2023-04-06T17:24:43;100275.44;;;11.97;30.97
53715;BME280;39608;55.630;37.864;2023-04-06T17:29:45;100279.28;;;11.91;31.71
53715;BME280;39608;55.630;37.864;2023-04-06T17:34:48;100291.06;;;11.81;31.50
53715;BME280;39608;55.630;37.864;2023-04-06T17:39:50;100296.56;;;11.71;31.67
53715;BME280;39608;55.630;37.864;2023-04-06T17:44:52;100295.03;;;11.60;31.47
53715;BME280;39608;55.630;37.864;2023-04-06T17:49:56;100295.34;;;11.53;31.63
53715;BME280;39608;55.630;37.864;2023-04-06T17:54:58;100301.66;;;11.38;32.00
53715;BME280;39608;55.630;37.864;2023-04-06T18:00:00;100300.38;;;11.30;31.77
53715;BME280;39608;55.630;37.864;2023-04-06T18:05:06;100308.53;;;11.25;31.90
53715;BME280;39608;55.630;37.864;2023-04-06T18:10:09;100306.69;;;11.16;31.83
53715;BME280;39608;55.630;37.864;2023-04-06T18:15:14;100294.81;;;10.96;32.41
53715;BME280;39608;55.630;37.864;2023-04-06T18:20:18;100310.84;;;10.92;32.10
53715;BME280;39608;55.630;37.864;2023-04-06T18:25:20;100305.19;;;10.78;32.28
53715;BME280;39608;55.630;37.864;2023-04-06T18:30:23;100308.22;;;10.72;32.38
53715;BME280;39608;55.630;37.864;2023-04-06T18:35:26;100316.38;;;10.61;32.27
53715;BME280;39608;55.630;37.864;2023-04-06T18:40:33;100311.78;;;10.57;32.25
53715;BME280;39608;55.630;37.864;2023-04-06T18:45:36;100326.44;;;10.46;32.35
53715;BME280;39608;55.630;37.864;2023-04-06T18:50:40;100316.69;;;10.34;32.37
53715;BME280;39608;55.630;37.864;2023-04-06T18:56:01;100321.28;;;10.28;32.17
53715;BME280;39608;55.630;37.864;2023-04-06T19:01:03;100312.63;;;10.16;32.23
53715;BME280;39608;55.630;37.864;2023-04-06T19:06:07;100326.16;;;10.11;32.58
53715;BME280;39608;55.630;37.864;2023-04-06T19:11:09;100316.66;;;9.93;32.57
53715;BME280;39608;55.630;37.864;2023-04-06T19:16:11;100322.09;;;9.83;32.90
53715;BME280;39608;55.630;37.864;2023-04-06T19:21:15;100318.84;;;9.75;32.48
53715;BME280;39608;55.630;37.864;2023-04-06T19:26:18;100309.34;;;9.57;32.82
53715;BME280;39608;55.630;37.864;2023-04-06T19:31:21;100314.19;;;9.50;32.95
53715;BME280;39608;55.630;37.864;2023-04-06T19:36:25;100324.47;;;9.43;33.42
53715;BME280;39608;55.630;37.864;2023-04-06T19:41:55;100252.88;;;8.93;33.10
53715;BME280;39608;55.630;37.864;2023-04-06T19:48:26;100279.69;;;9.04;33.19
53715;BME280;39608;55.630;37.864;2023-04-06T19:54:49;100272.59;;;8.83;32.98
53715;BME280;39608;55.630;37.864;2023-04-06T20:07:38;100327.25;;;8.95;33.76
53715;BME280;39608;55.630;37.864;2023-04-06T20:32:53;100329.19;;;8.47;34.39
53715;BME280;39608;55.630;37.864;2023-04-06T20:44:22;100339.47;;;8.17;34.79
53715;BME280;39608;55.630;37.864;2023-04-06T20:49:27;100331.03;;;8.09;35.11
53715;BME280;39608;55.630;37.864;2023-04-06T20:54:29;100342.81;;;7.97;35.38
53715;BME280;39608;55.630;37.864;2023-04-06T20:59:31;100344.09;;;7.90;35.35
53715;BME280;39608;55.630;37.864;2023-04-06T21:04:35;100337.84;;;7.84;35.64
53715;BME280;39608;55.630;37.864;2023-04-06T21:09:38;100341.78;;;7.71;35.96
53715;BME280;39608;55.630;37.864;2023-04-06T21:14:40;100322.66;;;7.50;35.99
53715;BME280;39608;55.630;37.864;2023-04-06T21:19:44;100350.84;;;7.60;36.14
53715;BME280;39608;55.630;37.864;2023-04-06T21:24:46;100339.66;;;7.51;36.39
53715;BME280;39608;55.630;37.864;2023-04-06T21:29:48;100361.44;;;7.44;36.50
53715;BME280;39608;55.630;37.864;2023-04-06T21:34:51;100356.78;;;7.34;36.79
53715;BME280;39608;55.630;37.864;2023-04-06T21:39:53;100365.78;;;7.23;36.88
53715;BME280;39608;55.630;37.864;2023-04-06T21:44:57;100367.63;;;7.17;37.15
53715;BME280;39608;55.630;37.864;2023-04-06T21:50:00;100372.22;;;7.17;36.96
53715;BME280;39608;55.630;37.864;2023-04-06T21:55:04;100368.56;;;7.06;37.32
53715;BME280;39608;55.630;37.864;2023-04-06T22:00:07;100368.50;;;7.01;37.43
53715;BME280;39608;55.630;37.864;2023-04-06T22:05:11;100369.00;;;6.98;37.80
53715;BME280;39608;55.630;37.864;2023-04-06T22:10:15;100364.78;;;6.85;37.97
53715;BME280;39608;55.630;37.864;2023-04-06T22:15:17;100367.09;;;6.76;38.00
53715;BME280;39608;55.630;37.864;2023-04-06T22:20:20;100357.22;;;6.65;38.41
53715;BME280;39608;55.630;37.864;2023-04-06T22:25:22;100360.09;;;6.58;38.27
53715;BME280;39608;55.630;37.864;2023-04-06T22:30:24;100358.16;;;6.54;38.26
53715;BME280;39608;55.630;37.864;2023-04-06T22:35:28;100360.50;;;6.50;38.61
53715;BME280;39608;55.630;37.864;2023-04-06T22:40:30;100354.97;;;6.40;38.70
53715;BME280;39608;55.630;37.864;2023-04-06T22:45:32;100359.13;;;6.30;39.26
53715;BME280;39608;55.630;37.864;2023-04-06T22:50:35;100363.97;;;6.28;39.19
53715;BME280;39608;55.630;37.864;2023-04-06T22:55:38;100369.81;;;6.25;39.57
53715;BME280;39608;55.630;37.864;2023-04-06T23:00:40;100361.59;;;6.15;39.74
53715;BME280;39608;55.630;37.864;2023-04-06T23:05:43;100365.25;;;6.09;39.56
53715;BME280;39608;55.630;37.864;2023-04-06T23:10:48;100367.06;;;6.03;39.53
53715;BME280;39608;55.630;37.864;2023-04-06T23:15:50;100367.41;;;5.95;40.52
53715;BME280;39608;55.630;37.864;2023-04-06T23:20:54;100365.44;;;5.90;40.49
53715;BME280;39608;55.630;37.864;2023-04-06T23:25:56;100362.00;;;5.78;40.67
53715;BME280;39608;55.630;37.864;2023-04-06T23:30:57;100363.78;;;5.72;40.19
53715;BME280;39608;55.630;37.864;2023-04-06T23:36:01;100354.41;;;5.75;40.64
53715;BME280;39608;55.630;37.864;2023-04-06T23:41:03;100348.94;;;5.70;40.58
53715;BME280;39608;55.630;37.864;2023-04-06T23:46:05;100350.47;;;5.65;41.03
53715;BME280;39608;55.630;37.864;2023-04-06T23:51:09;100335.88;;;5.61;41.29
53715;BME280;39608;55.630;37.864;2023-04-06T23:56:11;100339.63;;;5.60;41.11
